sensor_id;sensor_type;location;lat;lon;timestamp;pressure;altitude;pressure_sealevel;temperature;humidity
35507;BME280;36461;52.018;21.036;2022-10-16T00:01:31;100428.11;;;13.82;83.19
35507;BME280;36461;52.018;21.036;2022-10-16T00:03:59;100432.46;;;13.82;83.15
35507;BME280;36461;52.018;21.036;2022-10-16T00:06:28;100429.85;;;13.82;83.15
35507;BME280;36461;52.018;21.036;2022-10-16T00:08:56;100428.50;;;13.83;83.30
35507;BME280;36461;52.018;21.036;2022-10-16T00:11:25;100428.50;;;13.83;83.17
35507;BME280;36461;52.018;21.036;2022-10-16T00:13:57;100430.54;;;13.76;83.25
35507;BME280;36461;52.018;21.036;2022-10-16T00:16:25;100435.14;;;13.80;83.30
35507;BME280;36461;52.018;21.036;2022-10-16T00:18:52;100431.38;;;13.77;83.27
35507;BME280;36461;52.018;21.036;2022-10-16T00:21:22;100429.16;;;13.78;83.30
35507;BME280;36461;52.018;21.036;2022-10-16T00:23:51;100428.70;;;13.79;83.39
35507;BME280;36461;52.018;21.036;2022-10-16T00:26:22;100420.86;;;13.79;83.32
35507;BME280;36461;52.018;21.036;2022-10-16T00:28:50;100427.39;;;13.79;83.44
35507;BME280;36461;52.018;21.036;2022-10-16T00:31:19;100427.39;;;13.79;83.41
35507;BME280;36461;52.018;21.036;2022-10-16T00:33:47;100429.16;;;13.78;83.57
35507;BME280;36461;52.018;21.036;2022-10-16T00:36:17;100426.99;;;13.78;83.82
35507;BME280;36461;52.018;21.036;2022-10-16T00:38:46;100424.78;;;13.79;83.81
35507;BME280;36461;52.018;21.036;2022-10-16T00:41:17;100435.69;;;13.78;83.86
35507;BME280;36461;52.018;21.036;2022-10-16T00:46:29;100428.91;;;13.74;84.08
35507;BME280;36461;52.018;21.036;2022-10-16T00:51:42;100439.94;;;13.70;84.01
35507;BME280;36461;52.018;21.036;2022-10-16T00:54:16;100437.91;;;13.67;83.89
35507;BME280;36461;52.018;21.036;2022-10-16T00:56:43;100442.69;;;13.67;84.06
35507;BME280;36461;52.018;21.036;2022-10-16T00:59:18;100448.81;;;13.66;84.03
35507;BME280;36461;52.018;21.036;2022-10-16T01:01:47;100447.98;;;13.66;84.10
35507;BME280;36461;52.018;21.036;2022-10-16T01:04:14;100416.55;;;13.48;84.26
35507;BME280;36461;52.018;21.036;2022-10-16T01:07:02;100445.73;;;13.67;84.31
35507;BME280;36461;52.018;21.036;2022-10-16T01:09:35;100446.60;;;13.67;84.31
35507;BME280;36461;52.018;21.036;2022-10-16T01:15:34;100460.63;;;13.65;84.42
35507;BME280;36461;52.018;21.036;2022-10-16T01:18:16;100457.11;;;13.66;84.42
35507;BME280;36461;52.018;21.036;2022-10-16T01:21:05;100458.84;;;13.65;84.41
35507;BME280;36461;52.018;21.036;2022-10-16T01:24:01;100454.94;;;13.65;84.52
35507;BME280;36461;52.018;21.036;2022-10-16T01:29:27;100447.70;;;13.62;84.45
35507;BME280;36461;52.018;21.036;2022-10-16T01:32:05;100448.70;;;13.59;84.40
35507;BME280;36461;52.018;21.036;2022-10-16T01:38:00;100452.00;;;13.63;84.56
35507;BME280;36461;52.018;21.036;2022-10-16T01:40:40;100463.30;;;13.63;84.54
35507;BME280;36461;52.018;21.036;2022-10-16T01:43:12;100471.97;;;13.64;84.54
35507;BME280;36461;52.018;21.036;2022-10-16T01:45:44;100465.84;;;13.65;84.50
35507;BME280;36461;52.018;21.036;2022-10-16T01:48:17;100470.59;;;13.65;84.62
35507;BME280;36461;52.018;21.036;2022-10-16T01:50:57;100470.08;;;13.67;84.53
35507;BME280;36461;52.018;21.036;2022-10-16T01:53:26;100468.30;;;13.68;84.51
35507;BME280;36461;52.018;21.036;2022-10-16T01:55:55;100463.16;;;13.66;84.37
35507;BME280;36461;52.018;21.036;2022-10-16T01:58:24;100469.69;;;13.66;84.48
35507;BME280;36461;52.018;21.036;2022-10-16T02:00:53;100467.47;;;13.67;84.46
35507;BME280;36461;52.018;21.036;2022-10-16T02:03:22;100459.31;;;13.65;84.51
35507;BME280;36461;52.018;21.036;2022-10-16T02:05:52;100459.83;;;13.63;84.37
35507;BME280;36461;52.018;21.036;2022-10-16T02:08:22;100453.63;;;13.65;84.41
35507;BME280;36461;52.018;21.036;2022-10-16T02:10:50;100453.30;;;13.63;84.29
35507;BME280;36461;52.018;21.036;2022-10-16T02:13:19;100459.00;;;13.62;84.25
35507;BME280;36461;52.018;21.036;2022-10-16T02:15:47;100454.69;;;13.61;84.36
35507;BME280;36461;52.018;21.036;2022-10-16T02:18:19;100455.59;;;13.60;84.31
35507;BME280;36461;52.018;21.036;2022-10-16T02:23:23;100456.89;;;13.60;84.40
35507;BME280;36461;52.018;21.036;2022-10-16T02:25:50;100462.98;;;13.61;84.51
35507;BME280;36461;52.018;21.036;2022-10-16T02:28:25;100460.37;;;13.61;84.50
35507;BME280;36461;52.018;21.036;2022-10-16T02:30:56;100457.77;;;13.61;84.55
35507;BME280;36461;52.018;21.036;2022-10-16T02:33:25;100460.37;;;13.61;84.49
35507;BME280;36461;52.018;21.036;2022-10-16T02:35:53;100455.98;;;13.61;84.48
35507;BME280;36461;52.018;21.036;2022-10-16T02:38:21;100459.06;;;13.61;84.58
35507;BME280;36461;52.018;21.036;2022-10-16T02:40:50;100444.72;;;13.50;84.58
35507;BME280;36461;52.018;21.036;2022-10-16T02:43:17;100444.72;;;13.50;84.58
35507;BME280;36461;52.018;21.036;2022-10-16T02:45:44;100468.95;;;13.63;84.72
35507;BME280;36461;52.018;21.036;2022-10-16T02:48:11;100469.36;;;13.64;84.81
35507;BME280;36461;52.018;21.036;2022-10-16T02:50:38;100470.19;;;13.64;84.92
35507;BME280;36461;52.018;21.036;2022-10-16T02:53:04;100472.76;;;13.66;84.86
35507;BME280;36461;52.018;21.036;2022-10-16T02:55:32;100478.02;;;13.64;84.89
35507;BME280;36461;52.018;21.036;2022-10-16T02:57:58;100481.09;;;13.64;84.82
35507;BME280;36461;52.018;21.036;2022-10-16T03:00:25;100477.18;;;13.64;84.97
35507;BME280;36461;52.018;21.036;2022-10-16T03:02:51;100480.58;;;13.66;84.94
35507;BME280;36461;52.018;21.036;2022-10-16T03:05:18;100478.41;;;13.65;84.99
35507;BME280;36461;52.018;21.036;2022-10-16T03:07:45;100481.02;;;13.65;85.10
35507;BME280;36461;52.018;21.036;2022-10-16T03:10:12;100483.19;;;13.66;85.08
35507;BME280;36461;52.018;21.036;2022-10-16T03:12:39;100484.17;;;13.63;84.71
35507;BME280;36461;52.018;21.036;2022-10-16T03:15:07;100481.56;;;13.63;84.83
35507;BME280;36461;52.018;21.036;2022-10-16T03:17:34;100488.98;;;13.62;84.70
35507;BME280;36461;52.018;21.036;2022-10-16T03:20:03;100488.52;;;13.63;84.71
35507;BME280;36461;52.018;21.036;2022-10-16T03:22:30;100486.70;;;13.65;84.77
35507;BME280;36461;52.018;21.036;2022-10-16T03:24:57;100484.17;;;13.63;84.68
35507;BME280;36461;52.018;21.036;2022-10-16T03:27:23;100487.61;;;13.64;84.67
35507;BME280;36461;52.018;21.036;2022-10-16T03:29:49;100492.83;;;13.64;84.60
35507;BME280;36461;52.018;21.036;2022-10-16T03:32:16;100497.14;;;13.65;84.51
35507;BME280;36461;52.018;21.036;2022-10-16T03:34:44;100502.76;;;13.66;84.58
35507;BME280;36461;52.018;21.036;2022-10-16T03:37:11;100501.45;;;13.66;84.53
35507;BME280;36461;52.018;21.036;2022-10-16T03:39:38;100500.98;;;13.66;84.62
35507;BME280;36461;52.018;21.036;2022-10-16T03:42:05;100501.05;;;13.65;84.78
35507;BME280;36461;52.018;21.036;2022-10-16T03:44:31;100501.56;;;13.63;84.62
35507;BME280;36461;52.018;21.036;2022-10-16T03:46:58;100512.14;;;13.59;84.74
35507;BME280;36461;52.018;21.036;2022-10-16T03:49:24;100511.73;;;13.58;84.91
35507;BME280;36461;52.018;21.036;2022-10-16T03:51:51;100513.91;;;13.59;84.89
35507;BME280;36461;52.018;21.036;2022-10-16T03:54:17;100510.83;;;13.59;85.05
35507;BME280;36461;52.018;21.036;2022-10-16T03:56:44;100517.42;;;13.58;84.91
35507;BME280;36461;52.018;21.036;2022-10-16T03:59:10;100515.80;;;13.55;84.80
35507;BME280;36461;52.018;21.036;2022-10-16T04:01:37;100506.52;;;13.48;84.38
35507;BME280;36461;52.018;21.036;2022-10-16T04:04:05;100513.81;;;13.40;84.22
35507;BME280;36461;52.018;21.036;2022-10-16T04:06:31;100513.40;;;13.29;83.96
35507;BME280;36461;52.018;21.036;2022-10-16T04:08:58;100516.52;;;13.16;83.96
35507;BME280;36461;52.018;21.036;2022-10-16T04:11:25;100522.61;;;13.05;83.95
35507;BME280;36461;52.018;21.036;2022-10-16T04:13:51;100525.64;;;12.94;84.08
35507;BME280;36461;52.018;21.036;2022-10-16T04:16:18;100522.00;;;12.88;84.23
35507;BME280;36461;52.018;21.036;2022-10-16T04:18:44;100524.77;;;12.83;84.37
35507;BME280;36461;52.018;21.036;2022-10-16T04:21:11;100520.52;;;12.81;84.44
35507;BME280;36461;52.018;21.036;2022-10-16T04:23:38;100521.89;;;12.79;84.59
35507;BME280;36461;52.018;21.036;2022-10-16T04:26:05;100525.92;;;12.76;84.46
35507;BME280;36461;52.018;21.036;2022-10-16T04:28:32;100519.14;;;12.72;84.47
35507;BME280;36461;52.018;21.036;2022-10-16T04:30:59;100523.21;;;12.67;84.36
35507;BME280;36461;52.018;21.036;2022-10-16T04:33:25;100528.61;;;12.63;84.26
35507;BME280;36461;52.018;21.036;2022-10-16T04:35:59;100542.72;;;12.57;84.07
35507;BME280;36461;52.018;21.036;2022-10-16T04:38:26;100541.02;;;12.44;84.12
35507;BME280;36461;52.018;21.036;2022-10-16T04:40:53;100541.02;;;12.44;84.12
35507;BME280;36461;52.018;21.036;2022-10-16T04:43:20;100546.08;;;12.37;84.20
35507;BME280;36461;52.018;21.036;2022-10-16T04:45:47;100547.59;;;12.31;84.25
35507;BME280;36461;52.018;21.036;2022-10-16T04:48:15;100548.73;;;12.23;84.39
35507;BME280;36461;52.018;21.036;2022-10-16T04:50:41;100547.64;;;12.17;84.48
35507;BME280;36461;52.018;21.036;2022-10-16T04:53:08;100548.72;;;12.12;84.63
35507;BME280;36461;52.018;21.036;2022-10-16T04:55:35;100555.00;;;12.06;84.75
35507;BME280;36461;52.018;21.036;2022-10-16T04:58:03;100550.84;;;12.00;84.86
35507;BME280;36461;52.018;21.036;2022-10-16T05:00:30;100556.63;;;11.97;85.02
35507;BME280;36461;52.018;21.036;2022-10-16T05:02:58;100557.52;;;11.96;85.16
35507;BME280;36461;52.018;21.036;2022-10-16T05:05:27;100556.80;;;11.90;85.23
35507;BME280;36461;52.018;21.036;2022-10-16T05:07:55;100561.16;;;11.90;85.27
35507;BME280;36461;52.018;21.036;2022-10-16T05:10:22;100561.16;;;11.90;85.27
35507;BME280;36461;52.018;21.036;2022-10-16T05:12:50;100562.95;;;11.88;85.37
35507;BME280;36461;52.018;21.036;2022-10-16T05:15:18;100570.00;;;11.84;85.42
35507;BME280;36461;52.018;21.036;2022-10-16T05:17:44;100566.10;;;11.84;85.50
35507;BME280;36461;52.018;21.036;2022-10-16T05:20:13;100565.73;;;11.83;85.55
35507;BME280;36461;52.018;21.036;2022-10-16T05:22:40;100567.46;;;11.83;85.59
35507;BME280;36461;52.018;21.036;2022-10-16T05:25:06;100569.22;;;11.82;85.72
35507;BME280;36461;52.018;21.036;2022-10-16T05:27:34;100580.41;;;11.84;85.73
35507;BME280;36461;52.018;21.036;2022-10-16T05:30:00;100578.62;;;11.86;85.82
35507;BME280;36461;52.018;21.036;2022-10-16T05:32:27;100580.73;;;11.88;85.89
35507;BME280;36461;52.018;21.036;2022-10-16T05:34:54;100585.87;;;11.90;85.84
35507;BME280;36461;52.018;21.036;2022-10-16T05:37:20;100580.27;;;11.89;85.83
35507;BME280;36461;52.018;21.036;2022-10-16T05:39:47;100580.67;;;11.90;85.88
35507;BME280;36461;52.018;21.036;2022-10-16T05:42:14;100578.62;;;11.86;85.89
35507;BME280;36461;52.018;21.036;2022-10-16T05:44:40;100586.42;;;11.86;85.94
35507;BME280;36461;52.018;21.036;2022-10-16T05:47:07;100583.82;;;11.86;85.92
35507;BME280;36461;52.018;21.036;2022-10-16T05:49:33;100573.06;;;11.84;85.79
35507;BME280;36461;52.018;21.036;2022-10-16T05:52:00;100579.22;;;11.81;85.85
35507;BME280;36461;52.018;21.036;2022-10-16T05:54:26;100578.44;;;11.79;85.87
35507;BME280;36461;52.018;21.036;2022-10-16T05:56:53;100585.02;;;11.76;85.93
35507;BME280;36461;52.018;21.036;2022-10-16T05:59:20;100593.29;;;11.75;86.05
35507;BME280;36461;52.018;21.036;2022-10-16T06:01:47;100592.53;;;11.72;86.09
35507;BME280;36461;52.018;21.036;2022-10-16T06:04:14;100592.13;;;11.71;86.16
35507;BME280;36461;52.018;21.036;2022-10-16T06:06:41;100596.90;;;11.71;86.27
35507;BME280;36461;52.018;21.036;2022-10-16T06:09:09;100598.62;;;11.71;86.36
35507;BME280;36461;52.018;21.036;2022-10-16T06:11:36;100606.44;;;11.71;86.40
35507;BME280;36461;52.018;21.036;2022-10-16T06:14:04;100604.18;;;11.73;86.64
35507;BME280;36461;52.018;21.036;2022-10-16T06:16:34;100605.09;;;11.86;86.96
35507;BME280;36461;52.018;21.036;2022-10-16T06:19:03;100605.65;;;11.96;87.14
35507;BME280;36461;52.018;21.036;2022-10-16T06:21:32;100606.92;;;12.09;87.27
35507;BME280;36461;52.018;21.036;2022-10-16T06:23:58;100606.08;;;12.20;87.41
35507;BME280;36461;52.018;21.036;2022-10-16T06:26:27;100613.77;;;12.37;87.28
35507;BME280;36461;52.018;21.036;2022-10-16T06:28:57;100611.48;;;12.51;87.26
35507;BME280;36461;52.018;21.036;2022-10-16T06:31:26;100609.75;;;12.64;87.05
35507;BME280;36461;52.018;21.036;2022-10-16T06:33:55;100614.55;;;12.74;86.88
35507;BME280;36461;52.018;21.036;2022-10-16T06:36:23;100596.20;;;12.66;86.47
35507;BME280;36461;52.018;21.036;2022-10-16T06:38:51;100596.20;;;12.66;86.47
35507;BME280;36461;52.018;21.036;2022-10-16T06:41:20;100612.04;;;12.83;86.58
35507;BME280;36461;52.018;21.036;2022-10-16T06:43:48;100621.48;;;12.98;86.74
35507;BME280;36461;52.018;21.036;2022-10-16T06:46:18;100622.25;;;13.12;86.76
35507;BME280;36461;52.018;21.036;2022-10-16T06:48:46;100620.02;;;13.24;86.38
35507;BME280;36461;52.018;21.036;2022-10-16T06:51:18;100600.91;;;13.24;86.14
35507;BME280;36461;52.018;21.036;2022-10-16T06:53:49;100630.39;;;13.38;85.84
35507;BME280;36461;52.018;21.036;2022-10-16T06:56:21;100636.00;;;13.39;85.59
35507;BME280;36461;52.018;21.036;2022-10-16T06:58:50;100629.35;;;13.42;85.40
35507;BME280;36461;52.018;21.036;2022-10-16T07:01:19;100609.63;;;13.35;85.26
35507;BME280;36461;52.018;21.036;2022-10-16T07:03:48;100637.48;;;13.56;85.45
35507;BME280;36461;52.018;21.036;2022-10-16T07:06:18;100635.92;;;13.73;85.43
35507;BME280;36461;52.018;21.036;2022-10-16T07:08:47;100647.08;;;13.87;85.02
35507;BME280;36461;52.018;21.036;2022-10-16T07:11:16;100652.33;;;14.07;85.20
35507;BME280;36461;52.018;21.036;2022-10-16T07:13:46;100659.23;;;14.29;85.09
35507;BME280;36461;52.018;21.036;2022-10-16T07:16:22;100652.89;;;14.45;84.22
35507;BME280;36461;52.018;21.036;2022-10-16T07:18:50;100644.25;;;14.53;83.54
35507;BME280;36461;52.018;21.036;2022-10-16T07:21:20;100648.05;;;14.67;83.33
35507;BME280;36461;52.018;21.036;2022-10-16T07:23:53;100651.00;;;14.78;83.44
35507;BME280;36461;52.018;21.036;2022-10-16T07:26:21;100656.16;;;14.80;82.76
35507;BME280;36461;52.018;21.036;2022-10-16T07:28:49;100656.63;;;14.79;82.52
35507;BME280;36461;52.018;21.036;2022-10-16T07:31:17;100644.34;;;14.81;81.95
35507;BME280;36461;52.018;21.036;2022-10-16T07:33:46;100650.27;;;14.85;82.01
35507;BME280;36461;52.018;21.036;2022-10-16T07:36:17;100644.77;;;14.91;81.61
35507;BME280;36461;52.018;21.036;2022-10-16T07:38:46;100622.63;;;14.89;81.06
35507;BME280;36461;52.018;21.036;2022-10-16T07:41:16;100639.56;;;14.81;81.22
35507;BME280;36461;52.018;21.036;2022-10-16T07:43:48;100646.00;;;14.73;81.42
35507;BME280;36461;52.018;21.036;2022-10-16T07:46:17;100641.91;;;14.68;81.41
35507;BME280;36461;52.018;21.036;2022-10-16T07:48:45;100643.95;;;14.59;81.33
35507;BME280;36461;52.018;21.036;2022-10-16T07:51:15;100647.77;;;14.52;81.39
35507;BME280;36461;52.018;21.036;2022-10-16T07:53:45;100654.37;;;14.51;81.48
35507;BME280;36461;52.018;21.036;2022-10-16T07:56:13;100650.06;;;14.50;81.61
35507;BME280;36461;52.018;21.036;2022-10-16T07:58:40;100657.50;;;14.49;81.26
35507;BME280;36461;52.018;21.036;2022-10-16T08:01:10;100667.11;;;14.48;81.63
35507;BME280;36461;52.018;21.036;2022-10-16T08:03:47;100663.52;;;14.51;81.71
35507;BME280;36461;52.018;21.036;2022-10-16T08:06:11;100658.22;;;14.52;81.73
35507;BME280;36461;52.018;21.036;2022-10-16T08:08:39;100658.88;;;14.57;81.79
35507;BME280;36461;52.018;21.036;2022-10-16T08:11:06;100669.57;;;14.62;81.72
35507;BME280;36461;52.018;21.036;2022-10-16T08:13:33;100656.28;;;14.68;81.71
35507;BME280;36461;52.018;21.036;2022-10-16T08:16:01;100662.44;;;14.75;81.80
35507;BME280;36461;52.018;21.036;2022-10-16T08:18:29;100661.02;;;14.79;81.47
35507;BME280;36461;52.018;21.036;2022-10-16T08:20:57;100666.27;;;14.87;81.58
35507;BME280;36461;52.018;21.036;2022-10-16T08:23:26;100667.63;;;14.96;81.59
35507;BME280;36461;52.018;21.036;2022-10-16T08:25:55;100671.96;;;15.06;81.43
35507;BME280;36461;52.018;21.036;2022-10-16T08:28:23;100669.31;;;15.16;81.25
35507;BME280;36461;52.018;21.036;2022-10-16T08:30:50;100662.39;;;15.24;81.23
35507;BME280;36461;52.018;21.036;2022-10-16T08:33:17;100667.66;;;15.33;80.79
35507;BME280;36461;52.018;21.036;2022-10-16T08:35:52;100671.78;;;15.47;80.77
35507;BME280;36461;52.018;21.036;2022-10-16T08:38:21;100673.48;;;15.66;80.87
35507;BME280;36461;52.018;21.036;2022-10-16T08:40:48;100674.37;;;15.92;80.75
35507;BME280;36461;52.018;21.036;2022-10-16T08:43:29;100676.53;;;16.19;80.32
35507;BME280;36461;52.018;21.036;2022-10-16T08:46:32;100674.05;;;16.42;79.67
35507;BME280;36461;52.018;21.036;2022-10-16T08:49:02;100683.92;;;16.71;79.22
35507;BME280;36461;52.018;21.036;2022-10-16T08:51:31;100674.37;;;16.94;78.79
35507;BME280;36461;52.018;21.036;2022-10-16T08:54:02;100684.07;;;17.17;78.39
35507;BME280;36461;52.018;21.036;2022-10-16T08:56:31;100690.19;;;17.34;77.95
35507;BME280;36461;52.018;21.036;2022-10-16T08:58:59;100683.17;;;17.41;76.90
35507;BME280;36461;52.018;21.036;2022-10-16T09:01:41;100683.31;;;17.47;76.70
35507;BME280;36461;52.018;21.036;2022-10-16T09:07:39;100699.48;;;17.55;75.92
35507;BME280;36461;52.018;21.036;2022-10-16T09:10:29;100699.48;;;17.55;75.38
35507;BME280;36461;52.018;21.036;2022-10-16T09:22:09;100704.42;;;17.92;74.82
35507;BME280;36461;52.018;21.036;2022-10-16T09:24:39;100700.14;;;18.05;74.83
35507;BME280;36461;52.018;21.036;2022-10-16T09:27:08;100699.86;;;18.10;74.55
35507;BME280;36461;52.018;21.036;2022-10-16T09:29:37;100705.59;;;18.09;74.20
35507;BME280;36461;52.018;21.036;2022-10-16T09:32:19;100693.83;;;18.01;73.96
35507;BME280;36461;52.018;21.036;2022-10-16T09:34:50;100691.01;;;17.97;73.86
35507;BME280;36461;52.018;21.036;2022-10-16T09:37:20;100670.95;;;17.96;74.11
35507;BME280;36461;52.018;21.036;2022-10-16T09:39:53;100675.00;;;18.01;74.14
35507;BME280;36461;52.018;21.036;2022-10-16T09:42:23;100672.47;;;18.07;73.89
35507;BME280;36461;52.018;21.036;2022-10-16T09:44:56;100668.53;;;18.07;74.00
35507;BME280;36461;52.018;21.036;2022-10-16T09:47:25;100667.50;;;18.09;73.77
35507;BME280;36461;52.018;21.036;2022-10-16T09:52:26;100675.32;;;18.18;73.88
35507;BME280;36461;52.018;21.036;2022-10-16T09:54:56;100676.44;;;18.28;73.54
35507;BME280;36461;52.018;21.036;2022-10-16T09:57:23;100670.38;;;18.42;73.29
35507;BME280;36461;52.018;21.036;2022-10-16T09:59:53;100675.99;;;18.58;73.35
35507;BME280;36461;52.018;21.036;2022-10-16T10:02:35;100678.14;;;18.73;73.20
35507;BME280;36461;52.018;21.036;2022-10-16T10:05:06;100677.95;;;18.83;73.33
35507;BME280;36461;52.018;21.036;2022-10-16T10:07:43;100678.91;;;18.89;72.62
35507;BME280;36461;52.018;21.036;2022-10-16T10:10:24;100672.05;;;18.87;71.88
35507;BME280;36461;52.018;21.036;2022-10-16T10:12:53;100674.20;;;18.87;72.08
35507;BME280;36461;52.018;21.036;2022-10-16T10:15:20;100670.34;;;18.86;71.59
35507;BME280;36461;52.018;21.036;2022-10-16T10:17:52;100680.39;;;18.86;71.81
35507;BME280;36461;52.018;21.036;2022-10-16T10:20:34;100682.30;;;18.91;71.90
35507;BME280;36461;52.018;21.036;2022-10-16T10:23:19;100670.36;;;18.93;71.12
35507;BME280;36461;52.018;21.036;2022-10-16T10:26:05;100676.00;;;18.94;71.11
35507;BME280;36461;52.018;21.036;2022-10-16T10:28:53;100668.19;;;19.00;70.78
35507;BME280;36461;52.018;21.036;2022-10-16T10:36:56;100663.53;;;19.25;70.80
35507;BME280;36461;52.018;21.036;2022-10-16T10:50:33;100667.34;;;19.61;69.33
35507;BME280;36461;52.018;21.036;2022-10-16T11:05:28;100671.42;;;20.00;67.98
35507;BME280;36461;52.018;21.036;2022-10-16T11:15:52;100675.61;;;19.89;67.07
35507;BME280;36461;52.018;21.036;2022-10-16T11:18:24;100663.80;;;19.82;67.01
35507;BME280;36461;52.018;21.036;2022-10-16T11:21:00;100657.09;;;19.76;66.82
35507;BME280;36461;52.018;21.036;2022-10-16T11:26:16;100664.64;;;19.83;66.93
35507;BME280;36461;52.018;21.036;2022-10-16T11:28:49;100672.38;;;19.91;67.29
35507;BME280;36461;52.018;21.036;2022-10-16T11:31:43;100671.77;;;20.01;67.01
35507;BME280;36461;52.018;21.036;2022-10-16T11:37:21;100672.30;;;20.06;66.35
35507;BME280;36461;52.018;21.036;2022-10-16T11:39:52;100675.05;;;20.04;66.04
35507;BME280;36461;52.018;21.036;2022-10-16T11:42:36;100672.89;;;20.04;66.08
35507;BME280;36461;52.018;21.036;2022-10-16T11:56:18;100675.84;;;20.25;65.51
35507;BME280;36461;52.018;21.036;2022-10-16T11:58:56;100672.59;;;20.21;65.18
35507;BME280;36461;52.018;21.036;2022-10-16T12:01:51;100672.78;;;20.18;65.42
35507;BME280;36461;52.018;21.036;2022-10-16T12:07:09;100655.23;;;19.99;65.29
35507;BME280;36461;52.018;21.036;2022-10-16T12:09:39;100660.72;;;19.95;65.30
35507;BME280;36461;52.018;21.036;2022-10-16T12:12:47;100660.73;;;19.88;65.51
35507;BME280;36461;52.018;21.036;2022-10-16T12:17:53;100656.01;;;19.93;65.63
35507;BME280;36461;52.018;21.036;2022-10-16T12:20:32;100658.31;;;19.98;65.38
35507;BME280;36461;52.018;21.036;2022-10-16T12:23:07;100657.19;;;20.02;65.30
35507;BME280;36461;52.018;21.036;2022-10-16T12:25:36;100662.89;;;20.09;65.46
35507;BME280;36461;52.018;21.036;2022-10-16T12:28:22;100662.34;;;20.17;65.73
35507;BME280;36461;52.018;21.036;2022-10-16T12:30:58;100664.95;;;20.24;65.67
35507;BME280;36461;52.018;21.036;2022-10-16T12:33:30;100675.81;;;20.32;65.33
35507;BME280;36461;52.018;21.036;2022-10-16T12:36:13;100686.03;;;20.37;65.09
35507;BME280;36461;52.018;21.036;2022-10-16T12:38:49;100679.48;;;20.42;64.80
35507;BME280;36461;52.018;21.036;2022-10-16T12:41:29;100670.10;;;20.51;64.88
35507;BME280;36461;52.018;21.036;2022-10-16T12:44:01;100672.73;;;20.64;65.05
35507;BME280;36461;52.018;21.036;2022-10-16T12:51:43;100676.97;;;20.98;63.96
35507;BME280;36461;52.018;21.036;2022-10-16T12:54:13;100678.72;;;21.10;63.69
35507;BME280;36461;52.018;21.036;2022-10-16T12:59:59;100686.98;;;21.49;63.64
35507;BME280;36461;52.018;21.036;2022-10-16T13:08:46;100676.19;;;21.76;62.37
35507;BME280;36461;52.018;21.036;2022-10-16T13:11:32;100693.88;;;21.81;62.49
35507;BME280;36461;52.018;21.036;2022-10-16T13:14:22;100688.84;;;21.84;62.18
35507;BME280;36461;52.018;21.036;2022-10-16T13:17:00;100682.92;;;21.74;62.04
35507;BME280;36461;52.018;21.036;2022-10-16T13:22:43;100682.99;;;21.67;61.52
35507;BME280;36461;52.018;21.036;2022-10-16T13:25:22;100677.19;;;21.56;61.39
35507;BME280;36461;52.018;21.036;2022-10-16T13:30:28;100685.72;;;21.54;61.66
35507;BME280;36461;52.018;21.036;2022-10-16T13:33:02;100687.13;;;21.53;61.79
35507;BME280;36461;52.018;21.036;2022-10-16T13:35:55;100693.22;;;21.48;61.91
35507;BME280;36461;52.018;21.036;2022-10-16T13:38:29;100708.92;;;21.43;61.86
35507;BME280;36461;52.018;21.036;2022-10-16T13:41:00;100709.70;;;21.33;62.00
35507;BME280;36461;52.018;21.036;2022-10-16T13:43:34;100706.69;;;21.32;62.01
35507;BME280;36461;52.018;21.036;2022-10-16T13:46:14;100715.05;;;21.25;62.25
35507;BME280;36461;52.018;21.036;2022-10-16T13:49:10;100712.12;;;21.17;62.30
35507;BME280;36461;52.018;21.036;2022-10-16T13:51:32;100724.47;;;20.98;62.19
35507;BME280;36461;52.018;21.036;2022-10-16T13:54:01;100719.69;;;20.85;62.46
35507;BME280;36461;52.018;21.036;2022-10-16T13:56:30;100725.34;;;20.73;62.45
35507;BME280;36461;52.018;21.036;2022-10-16T13:59:01;100726.70;;;20.66;62.63
35507;BME280;36461;52.018;21.036;2022-10-16T14:01:32;100719.20;;;20.59;62.72
35507;BME280;36461;52.018;21.036;2022-10-16T14:04:11;100712.67;;;20.52;63.01
35507;BME280;36461;52.018;21.036;2022-10-16T14:06:36;100716.50;;;20.41;63.32
35507;BME280;36461;52.018;21.036;2022-10-16T14:09:24;100717.94;;;20.39;63.43
35507;BME280;36461;52.018;21.036;2022-10-16T14:11:58;100716.94;;;20.35;63.48
35507;BME280;36461;52.018;21.036;2022-10-16T14:14:23;100710.54;;;20.32;63.59
35507;BME280;36461;52.018;21.036;2022-10-16T14:16:51;100714.82;;;20.27;63.75
35507;BME280;36461;52.018;21.036;2022-10-16T14:19:26;100709.44;;;20.28;64.01
35507;BME280;36461;52.018;21.036;2022-10-16T14:21:54;100701.64;;;20.27;64.07
35507;BME280;36461;52.018;21.036;2022-10-16T14:24:25;100709.92;;;20.28;64.40
35507;BME280;36461;52.018;21.036;2022-10-16T14:26:54;100715.49;;;20.23;64.40
35507;BME280;36461;52.018;21.036;2022-10-16T14:29:24;100724.10;;;20.20;64.62
35507;BME280;36461;52.018;21.036;2022-10-16T14:32:04;100723.67;;;20.13;64.66
35507;BME280;36461;52.018;21.036;2022-10-16T14:34:34;100727.64;;;20.06;64.90
35507;BME280;36461;52.018;21.036;2022-10-16T14:37:24;100736.48;;;20.05;65.37
35507;BME280;36461;52.018;21.036;2022-10-16T14:39:53;100730.11;;;20.02;65.45
35507;BME280;36461;52.018;21.036;2022-10-16T14:42:22;100731.92;;;20.01;65.72
35507;BME280;36461;52.018;21.036;2022-10-16T14:44:51;100737.12;;;19.95;65.77
35507;BME280;36461;52.018;21.036;2022-10-16T14:47:23;100741.75;;;19.92;66.01
35507;BME280;36461;52.018;21.036;2022-10-16T14:49:52;100742.41;;;19.88;66.12
35507;BME280;36461;52.018;21.036;2022-10-16T14:52:21;100738.95;;;19.88;66.29